Time;durP1;ratioP1;P1;durP2;ratioP2;P2;SDS_P1;SDS_P2;PMS_P1;PMS_P2;Temp;Humidity;BMP_temperature;BMP_pressure;BME280_temperature;BME280_humidity;BME280_pressure;Samples;Min_cycle;Max_cycle;Signal;HPM_P1;HPM_P2
2024/03/03 00:04:27;;;;;;;15.40;12.30;;;;;;;;;;10312405;28;20486;-91
2024/03/03 00:09:32;;;;;;;16.45;12.43;;;;;;;;;;10302748;28;20422;-91
2024/03/03 00:14:35;;;;;;;18.20;12.83;;;;;;;;;;10306570;28;20473;-87
2024/03/03 00:19:37;;;;;;;16.40;13.02;;;;;;;;;;10303086;28;20452;-87
2024/03/03 00:24:41;;;;;;;17.95;12.35;;;;;;;;;;10289409;28;20423;-88
2024/03/03 00:29:43;;;;;;;16.33;11.80;;;;;;;;;;10306004;28;20429;-88
2024/03/03 00:34:46;;;;;;;16.23;12.20;;;;;;;;;;10297524;28;20418;-89
2024/03/03 00:39:49;;;;;;;17.15;11.88;;;;;;;;;;10296173;28;20448;-88
2024/03/03 00:44:52;;;;;;;16.63;11.60;;;;;;;;;;10319869;28;20438;-88
2024/03/03 00:49:55;;;;;;;15.47;11.07;;;;;;;;;;10317106;28;20429;-88
2024/03/03 00:54:59;;;;;;;17.15;11.43;;;;;;;;;;10309035;28;20448;-88
2024/03/03 01:00:01;;;;;;;16.23;11.50;;;;;;;;;;10311270;28;20843;-89
2024/03/03 01:05:03;;;;;;;16.93;12.33;;;;;;;;;;10307849;28;20410;-89
2024/03/03 01:10:08;;;;;;;17.45;12.00;;;;;;;;;;10312063;28;20795;-89
2024/03/03 01:15:11;;;;;;;17.45;11.65;;;;;;;;;;10304434;28;20473;-88
2024/03/03 01:20:14;;;;;;;16.60;11.33;;;;;;;;;;10316333;28;20446;-88
2024/03/03 01:25:18;;;;;;;15.82;10.82;;;;;;;;;;10305290;28;20425;-88
2024/03/03 01:30:20;;;;;;;13.57;9.87;;;;;;;;;;10311141;28;20458;-89
2024/03/03 01:35:22;;;;;;;13.77;9.70;;;;;;;;;;10309080;28;20419;-89
2024/03/03 01:40:26;;;;;;;13.48;9.65;;;;;;;;;;10311995;28;20415;-89
2024/03/03 01:45:30;;;;;;;14.48;9.30;;;;;;;;;;10311359;28;20406;-87
2024/03/03 01:50:33;;;;;;;13.65;8.68;;;;;;;;;;10330154;28;20417;-87
2024/03/03 01:55:37;;;;;;;14.25;9.77;;;;;;;;;;10318512;28;20479;-88
2024/03/03 02:00:40;;;;;;;14.23;9.95;;;;;;;;;;10312929;28;20473;-89
2024/03/03 02:05:42;;;;;;;13.43;10.15;;;;;;;;;;10314482;28;20448;-89
2024/03/03 02:10:47;;;;;;;14.25;10.35;;;;;;;;;;10311109;28;20481;-88
2024/03/03 02:15:49;;;;;;;14.82;10.68;;;;;;;;;;10305761;28;20442;-83
2024/03/03 02:20:52;;;;;;;16.50;10.82;;;;;;;;;;10308913;28;21307;-86
2024/03/03 02:25:56;;;;;;;16.08;10.88;;;;;;;;;;10314420;28;20492;-89
2024/03/03 02:30:58;;;;;;;16.70;10.80;;;;;;;;;;10309505;28;20434;-88
2024/03/03 02:36:00;;;;;;;15.40;10.30;;;;;;;;;;10310662;28;20406;-89
2024/03/03 02:41:05;;;;;;;15.90;11.27;;;;;;;;;;10306134;28;20437;-88
2024/03/03 02:46:07;;;;;;;14.00;10.35;;;;;;;;;;10310519;28;20769;-88
2024/03/03 02:51:09;;;;;;;14.93;10.10;;;;;;;;;;10311719;28;20453;-88
2024/03/03 02:56:13;;;;;;;14.13;10.05;;;;;;;;;;10328257;28;20415;-88
2024/03/03 03:01:16;;;;;;;13.80;10.07;;;;;;;;;;10310694;28;20471;-88
2024/03/03 03:06:18;;;;;;;12.97;10.00;;;;;;;;;;10306084;28;20417;-89
2024/03/03 03:11:22;;;;;;;13.20;9.00;;;;;;;;;;10307368;28;20426;-88
2024/03/03 03:16:24;;;;;;;12.63;9.27;;;;;;;;;;10307070;28;20415;-88
2024/03/03 03:21:27;;;;;;;10.95;8.75;;;;;;;;;;10305084;28;20452;-88
2024/03/03 03:26:31;;;;;;;12.50;9.53;;;;;;;;;;10294124;28;20405;-88
2024/03/03 03:31:33;;;;;;;12.80;9.40;;;;;;;;;;10295393;28;20434;-88
2024/03/03 03:36:36;;;;;;;11.70;8.77;;;;;;;;;;10307561;28;20444;-88
2024/03/03 03:41:46;;;;;;;12.77;9.15;;;;;;;;;;10313237;28;20413;-87
2024/03/03 03:46:48;;;;;;;12.50;8.87;;;;;;;;;;10285626;28;20762;-89
2024/03/03 03:51:51;;;;;;;13.07;9.23;;;;;;;;;;10289516;28;20442;-89
2024/03/03 03:56:54;;;;;;;11.82;8.70;;;;;;;;;;10308894;28;20420;-88
2024/03/03 04:01:58;;;;;;;13.07;8.63;;;;;;;;;;10330109;28;20615;-88
2024/03/03 04:07:01;;;;;;;11.27;7.70;;;;;;;;;;10310724;28;20406;-88
2024/03/03 04:12:06;;;;;;;10.80;7.57;;;;;;;;;;10311734;28;20430;-88
2024/03/03 04:17:09;;;;;;;10.48;7.45;;;;;;;;;;10304564;28;20891;-89
2024/03/03 04:22:11;;;;;;;10.70;7.63;;;;;;;;;;10299813;28;20423;-88
2024/03/03 04:27:15;;;;;;;9.00;6.63;;;;;;;;;;10304541;28;20768;-88
2024/03/03 04:32:18;;;;;;;9.23;6.20;;;;;;;;;;10309818;28;20434;-88
2024/03/03 04:37:20;;;;;;;9.05;6.20;;;;;;;;;;10314126;28;20471;-88
2024/03/03 04:42:24;;;;;;;7.93;5.85;;;;;;;;;;10310296;28;20413;-88
2024/03/03 04:47:26;;;;;;;7.50;5.73;;;;;;;;;;10310354;28;20415;-89
2024/03/03 04:52:29;;;;;;;8.93;5.82;;;;;;;;;;10312388;28;20493;-88
2024/03/03 04:57:33;;;;;;;8.27;6.43;;;;;;;;;;10308551;28;20421;-89
2024/03/03 05:02:35;;;;;;;8.97;6.10;;;;;;;;;;10305639;28;20409;-88
2024/03/03 05:07:38;;;;;;;10.47;6.77;;;;;;;;;;10334624;28;20418;-88
2024/03/03 05:12:41;;;;;;;11.50;6.90;;;;;;;;;;10307409;28;20489;-88
2024/03/03 05:17:44;;;;;;;13.32;7.90;;;;;;;;;;10309356;28;20430;-88
2024/03/03 05:22:47;;;;;;;19.08;10.05;;;;;;;;;;10305078;28;20414;-88
2024/03/03 05:27:53;;;;;;;28.10;12.70;;;;;;;;;;10304025;28;20406;-88
2024/03/03 05:32:55;;;;;;;29.85;13.27;;;;;;;;;;10308851;28;20422;-89
2024/03/03 05:37:58;;;;;;;29.88;13.23;;;;;;;;;;10309795;28;20422;-88
2024/03/03 05:43:02;;;;;;;29.10;12.55;;;;;;;;;;10309994;28;20405;-88
2024/03/03 05:48:05;;;;;;;23.25;11.55;;;;;;;;;;10315989;28;20448;-88
2024/03/03 05:53:07;;;;;;;23.93;11.03;;;;;;;;;;10306544;28;20433;-88
2024/03/03 05:58:11;;;;;;;21.52;10.38;;;;;;;;;;10309868;28;20415;-88
2024/03/03 06:03:14;;;;;;;23.30;9.65;;;;;;;;;;10311536;28;20406;-88
2024/03/03 06:08:17;;;;;;;20.13;9.55;;;;;;;;;;10301152;28;20576;-88
2024/03/03 06:13:20;;;;;;;21.58;8.57;;;;;;;;;;10310338;28;20431;-88
2024/03/03 06:18:27;;;;;;;20.47;8.47;;;;;;;;;;10309289;28;20428;-86
2024/03/03 06:23:29;;;;;;;17.23;7.90;;;;;;;;;;10307418;28;20417;-87
2024/03/03 06:28:33;;;;;;;17.25;8.30;;;;;;;;;;10306561;28;20419;-88
2024/03/03 06:33:35;;;;;;;17.98;8.25;;;;;;;;;;10313639;28;20845;-88
2024/03/03 06:38:37;;;;;;;16.27;8.35;;;;;;;;;;10311732;28;20450;-88
2024/03/03 06:43:42;;;;;;;16.48;8.18;;;;;;;;;;10301541;28;20484;-88
2024/03/03 06:48:44;;;;;;;15.00;7.53;;;;;;;;;;10307131;28;20513;-88
2024/03/03 06:53:46;;;;;;;13.90;7.50;;;;;;;;;;10306264;28;20434;-88
2024/03/03 06:58:50;;;;;;;15.77;7.60;;;;;;;;;;10305190;28;20893;-88
2024/03/03 07:04:09;;;;;;;15.52;8.02;;;;;;;;;;10305821;28;20471;-88
2024/03/03 07:09:12;;;;;;;14.25;7.68;;;;;;;;;;10302829;28;20458;-88
2024/03/03 07:14:16;;;;;;;13.63;7.57;;;;;;;;;;10299183;28;20439;-88
2024/03/03 07:19:18;;;;;;;16.70;8.57;;;;;;;;;;10302718;28;20477;-89
2024/03/03 07:24:21;;;;;;;15.05;8.13;;;;;;;;;;10301413;28;20417;-88
2024/03/03 07:29:25;;;;;;;15.43;7.63;;;;;;;;;;10303388;28;20478;-88
2024/03/03 07:34:27;;;;;;;16.25;7.43;;;;;;;;;;10315158;28;20430;-88
2024/03/03 07:39:30;;;;;;;11.93;6.63;;;;;;;;;;10314789;28;20414;-88
2024/03/03 07:44:33;;;;;;;14.27;8.07;;;;;;;;;;10311123;28;20410;-88
2024/03/03 07:49:36;;;;;;;12.23;7.30;;;;;;;;;;10334301;23;20425;-84
2024/03/03 07:54:38;;;;;;;13.57;7.40;;;;;;;;;;10350576;28;20491;-85
2024/03/03 07:59:42;;;;;;;13.00;7.30;;;;;;;;;;10346833;28;20472;-86
2024/03/03 08:04:44;;;;;;;10.88;6.78;;;;;;;;;;10349442;28;20465;-85
2024/03/03 08:09:47;;;;;;;12.68;6.75;;;;;;;;;;10345729;28;20925;-85
2024/03/03 08:14:50;;;;;;;11.45;6.60;;;;;;;;;;10347525;28;20428;-84
2024/03/03 08:19:53;;;;;;;9.93;6.33;;;;;;;;;;10347178;28;20473;-86
2024/03/03 08:24:55;;;;;;;12.25;6.75;;;;;;;;;;10345663;28;20496;-85
2024/03/03 08:29:59;;;;;;;11.07;6.25;;;;;;;;;;10345018;28;20439;-85
2024/03/03 08:35:01;;;;;;;9.65;6.35;;;;;;;;;;10344809;28;20463;-84
2024/03/03 08:40:05;;;;;;;9.48;6.32;;;;;;;;;;10339515;28;20444;-84
2024/03/03 08:45:10;;;;;;;10.67;6.30;;;;;;;;;;10341883;28;20408;-83
2024/03/03 08:50:14;;;;;;;11.27;5.72;;;;;;;;;;10342811;28;20500;-84
2024/03/03 08:55:16;;;;;;;8.05;5.10;;;;;;;;;;10339980;28;20456;-83
2024/03/03 09:00:21;;;;;;;7.50;5.07;;;;;;;;;;10346379;28;20443;-85
2024/03/03 09:05:23;;;;;;;9.52;5.10;;;;;;;;;;10335621;28;20435;-85
2024/03/03 09:10:25;;;;;;;9.60;5.68;;;;;;;;;;10343319;28;20411;-84
2024/03/03 09:15:29;;;;;;;7.75;5.22;;;;;;;;;;10336238;28;20464;-84
2024/03/03 09:20:31;;;;;;;8.70;5.20;;;;;;;;;;10344283;28;20439;-85
2024/03/03 09:25:34;;;;;;;7.75;4.90;;;;;;;;;;10344661;28;20484;-84
2024/03/03 09:30:37;;;;;;;9.20;5.60;;;;;;;;;;10336712;28;20495;-85
2024/03/03 09:35:40;;;;;;;7.22;4.68;;;;;;;;;;10329250;28;21007;-84
2024/03/03 09:40:44;;;;;;;7.35;5.07;;;;;;;;;;10334581;28;20889;-85
2024/03/03 09:45:50;;;;;;;7.47;4.93;;;;;;;;;;10341722;28;20479;-84
2024/03/03 09:50:57;;;;;;;8.00;5.50;;;;;;;;;;10328329;28;20448;-83
2024/03/03 09:56:01;;;;;;;8.23;5.37;;;;;;;;;;10331694;28;20463;-85
2024/03/03 10:01:07;;;;;;;7.73;4.97;;;;;;;;;;10326261;28;20801;-84
2024/03/03 10:06:12;;;;;;;7.23;5.03;;;;;;;;;;10320384;28;20482;-85
2024/03/03 10:11:24;;;;;;;10.27;5.57;;;;;;;;;;10321396;28;20438;-84
2024/03/03 10:16:31;;;;;;;9.00;5.50;;;;;;;;;;10323376;28;20542;-85
2024/03/03 10:21:35;;;;;;;7.05;4.68;;;;;;;;;;10328009;28;20919;-89
2024/03/03 10:26:38;;;;;;;8.88;5.00;;;;;;;;;;10310633;28;20460;-85
2024/03/03 10:31:42;;;;;;;6.38;4.40;;;;;;;;;;10321068;28;20553;-84
2024/03/03 10:36:44;;;;;;;5.45;4.30;;;;;;;;;;10320318;28;20545;-84
2024/03/03 10:41:47;;;;;;;5.80;4.00;;;;;;;;;;10326374;28;20925;-85
2024/03/03 10:46:51;;;;;;;5.63;3.90;;;;;;;;;;10329400;28;20511;-85
2024/03/03 10:51:53;;;;;;;5.88;4.28;;;;;;;;;;10336099;28;21007;-85
2024/03/03 10:56:58;;;;;;;5.95;4.07;;;;;;;;;;10327475;28;20451;-86
2024/03/03 11:02:03;;;;;;;6.60;3.75;;;;;;;;;;10335238;28;20446;-85
2024/03/03 11:07:06;;;;;;;6.15;4.10;;;;;;;;;;10345618;28;20412;-84
2024/03/03 11:12:16;;;;;;;6.35;3.58;;;;;;;;;;10335783;28;20426;-83
2024/03/03 11:17:21;;;;;;;5.35;3.70;;;;;;;;;;10330598;28;20429;-85
2024/03/03 11:22:25;;;;;;;5.10;3.00;;;;;;;;;;10343431;28;20508;-84
2024/03/03 11:27:29;;;;;;;4.05;3.35;;;;;;;;;;10332626;28;20475;-83
2024/03/03 11:32:39;;;;;;;4.87;3.70;;;;;;;;;;10345241;28;20451;-84
2024/03/03 11:37:41;;;;;;;5.00;3.10;;;;;;;;;;10343991;28;20458;-83
2024/03/03 11:42:46;;;;;;;3.73;3.07;;;;;;;;;;10343391;28;20934;-85
2024/03/03 11:47:49;;;;;;;4.53;3.37;;;;;;;;;;10330008;28;20671;-85
2024/03/03 11:52:53;;;;;;;4.00;3.17;;;;;;;;;;10342929;28;20450;-84
2024/03/03 11:57:56;;;;;;;6.30;3.63;;;;;;;;;;10341835;28;20458;-85
2024/03/03 12:03:01;;;;;;;3.73;3.30;;;;;;;;;;10338344;28;20455;-86
2024/03/03 12:08:09;;;;;;;8.65;4.50;;;;;;;;;;10331413;28;20433;-86
2024/03/03 12:13:11;;;;;;;5.80;3.60;;;;;;;;;;10340236;28;20908;-85
2024/03/03 12:18:15;;;;;;;4.90;3.38;;;;;;;;;;10345728;28;20447;-84
2024/03/03 12:23:18;;;;;;;4.75;3.25;;;;;;;;;;10336565;28;20503;-85
2024/03/03 12:28:23;;;;;;;4.53;3.00;;;;;;;;;;10331110;28;20495;-85
2024/03/03 12:33:28;;;;;;;3.97;3.20;;;;;;;;;;10335312;28;20487;-86
2024/03/03 12:38:31;;;;;;;5.47;3.50;;;;;;;;;;10340164;28;20444;-86
2024/03/03 12:43:34;;;;;;;5.17;3.23;;;;;;;;;;10340585;28;20415;-85
2024/03/03 12:48:38;;;;;;;4.67;3.13;;;;;;;;;;10346069;28;20431;-85
2024/03/03 12:53:41;;;;;;;4.70;3.05;;;;;;;;;;10348895;28;20495;-84
2024/03/03 12:58:44;;;;;;;5.18;3.42;;;;;;;;;;10346081;28;20412;-85
2024/03/03 13:03:52;;;;;;;7.63;4.43;;;;;;;;;;10346924;28;20874;-85
2024/03/03 13:08:56;;;;;;;7.95;4.68;;;;;;;;;;10338405;28;20432;-85
2024/03/03 13:13:59;;;;;;;7.78;4.40;;;;;;;;;;10332008;28;20511;-86
2024/03/03 13:19:03;;;;;;;6.75;3.38;;;;;;;;;;10335515;28;20455;-85
2024/03/03 13:24:15;;;;;;;5.93;3.23;;;;;;;;;;10345045;28;20531;-85
2024/03/03 13:29:17;;;;;;;8.63;4.00;;;;;;;;;;10340540;28;20476;-86
2024/03/03 13:34:21;;;;;;;4.63;2.90;;;;;;;;;;10340663;28;20459;-88
2024/03/03 13:39:24;;;;;;;7.18;2.42;;;;;;;;;;10326202;28;20513;-86
2024/03/03 13:44:26;;;;;;;5.47;2.93;;;;;;;;;;10322695;28;20498;-88
2024/03/03 13:49:30;;;;;;;5.47;3.20;;;;;;;;;;10321904;28;20432;-86
2024/03/03 13:54:36;;;;;;;3.70;2.10;;;;;;;;;;10334242;28;20456;-85
2024/03/03 13:59:39;;;;;;;3.20;2.20;;;;;;;;;;10330449;28;20443;-87
2024/03/03 14:04:43;;;;;;;4.05;2.80;;;;;;;;;;10324113;28;20907;-87
2024/03/03 14:09:45;;;;;;;2.95;2.05;;;;;;;;;;10320069;28;20452;-87
2024/03/03 14:14:48;;;;;;;3.60;2.00;;;;;;;;;;10324943;28;20534;-88
2024/03/03 14:19:53;;;;;;;6.25;1.80;;;;;;;;;;10348952;28;20439;-87
2024/03/03 14:24:55;;;;;;;3.17;1.80;;;;;;;;;;10385056;28;20436;-86
2024/03/03 14:29:57;;;;;;;4.40;1.60;;;;;;;;;;10349558;28;20763;-87
2024/03/03 14:35:01;;;;;;;3.47;1.77;;;;;;;;;;10334210;28;20460;-87
2024/03/03 14:40:08;;;;;;;5.37;2.30;;;;;;;;;;10335282;28;20478;-85
2024/03/03 14:45:13;;;;;;;3.00;2.20;;;;;;;;;;10326270;28;20436;-86
2024/03/03 14:50:17;;;;;;;3.20;2.07;;;;;;;;;;10324106;28;20450;-86
2024/03/03 14:55:19;;;;;;;5.22;2.35;;;;;;;;;;10336374;28;20453;-86
2024/03/03 15:00:23;;;;;;;5.93;2.28;;;;;;;;;;10323359;28;20444;-85
2024/03/03 15:05:27;;;;;;;3.50;2.42;;;;;;;;;;10328619;28;20526;-86
2024/03/03 15:10:29;;;;;;;3.65;2.20;;;;;;;;;;10333312;28;20436;-86
2024/03/03 15:15:33;;;;;;;4.00;1.98;;;;;;;;;;10331754;28;20472;-81
2024/03/03 15:20:38;;;;;;;3.33;2.00;;;;;;;;;;10333888;28;20447;-86
2024/03/03 15:25:41;;;;;;;4.60;2.07;;;;;;;;;;10328934;28;20521;-83
2024/03/03 15:30:43;;;;;;;4.97;1.90;;;;;;;;;;10348516;28;20441;-84
2024/03/03 15:35:48;;;;;;;5.57;2.40;;;;;;;;;;10327859;28;20458;-83
2024/03/03 15:40:50;;;;;;;3.88;2.13;;;;;;;;;;10327085;28;20925;-85
2024/03/03 15:45:53;;;;;;;3.08;1.88;;;;;;;;;;10325143;28;20906;-84
2024/03/03 15:50:57;;;;;;;3.50;1.75;;;;;;;;;;10341375;28;20473;-82
2024/03/03 15:56:00;;;;;;;4.45;1.50;;;;;;;;;;10346397;28;20517;-84
2024/03/03 16:01:03;;;;;;;3.33;1.33;;;;;;;;;;10343428;28;20452;-83
2024/03/03 16:06:07;;;;;;;3.30;1.25;;;;;;;;;;10340329;28;20914;-84
2024/03/03 16:11:10;;;;;;;3.95;1.60;;;;;;;;;;10341503;28;20452;-84
2024/03/03 16:16:13;;;;;;;3.90;1.70;;;;;;;;;;10346610;28;20501;-79
2024/03/03 16:21:16;;;;;;;3.07;1.27;;;;;;;;;;10331013;28;20502;-78
2024/03/03 16:26:19;;;;;;;5.25;1.63;;;;;;;;;;10340234;28;20431;-79
2024/03/03 16:31:22;;;;;;;3.95;1.70;;;;;;;;;;10332061;28;20435;-79
2024/03/03 16:36:25;;;;;;;4.75;1.60;;;;;;;;;;10338094;28;20455;-78
2024/03/03 16:41:28;;;;;;;4.43;2.10;;;;;;;;;;10340567;28;21055;-79
2024/03/03 16:46:31;;;;;;;9.00;2.07;;;;;;;;;;10329258;28;21122;-83
2024/03/03 16:51:35;;;;;;;5.93;2.50;;;;;;;;;;10324577;28;20589;-82
2024/03/03 16:56:37;;;;;;;5.18;2.45;;;;;;;;;;10327249;28;20540;-82
2024/03/03 17:01:40;;;;;;;5.70;1.73;;;;;;;;;;10323277;28;20780;-86
2024/03/03 17:06:44;;;;;;;2.95;1.95;;;;;;;;;;10343595;28;20509;-88
2024/03/03 17:11:47;;;;;;;5.50;2.35;;;;;;;;;;10315417;28;20485;-86
2024/03/03 17:16:50;;;;;;;5.00;2.10;;;;;;;;;;10321354;28;20448;-87
2024/03/03 17:21:54;;;;;;;7.95;2.65;;;;;;;;;;10327945;28;20444;-88
2024/03/03 17:26:56;;;;;;;6.07;2.53;;;;;;;;;;10334568;23;20565;-87
2024/03/03 17:31:59;;;;;;;6.18;2.58;;;;;;;;;;10304296;28;20499;-89
2024/03/03 17:37:03;;;;;;;8.90;4.10;;;;;;;;;;10308116;28;20985;-86
2024/03/03 17:42:06;;;;;;;5.38;2.05;;;;;;;;;;10317378;28;20443;-88
2024/03/03 17:47:10;;;;;;;3.63;2.35;;;;;;;;;;10308942;28;20526;-87
2024/03/03 17:52:13;;;;;;;5.88;2.40;;;;;;;;;;10306096;28;20916;-87
2024/03/03 17:57:16;;;;;;;3.80;2.50;;;;;;;;;;10308765;28;20486;-85
2024/03/03 18:02:18;;;;;;;4.43;2.30;;;;;;;;;;10302542;28;20448;-85
2024/03/03 18:07:23;;;;;;;4.40;2.40;;;;;;;;;;10298436;28;20509;-86
2024/03/03 18:12:25;;;;;;;6.93;2.50;;;;;;;;;;10297701;28;20489;-86
2024/03/03 18:17:28;;;;;;;5.27;2.50;;;;;;;;;;10309413;28;20446;-85
2024/03/03 18:22:32;;;;;;;8.52;2.70;;;;;;;;;;10311444;28;20491;-86
2024/03/03 18:27:34;;;;;;;5.67;2.40;;;;;;;;;;10308398;28;20473;-86
2024/03/03 18:32:37;;;;;;;5.82;2.30;;;;;;;;;;10310732;28;20471;-86
2024/03/03 18:37:41;;;;;;;5.22;2.25;;;;;;;;;;10312600;28;20954;-87
2024/03/03 18:42:44;;;;;;;7.72;2.58;;;;;;;;;;10310690;28;20452;-87
2024/03/03 18:47:46;;;;;;;4.72;3.10;;;;;;;;;;10308632;28;20472;-84
2024/03/03 18:52:51;;;;;;;6.15;3.05;;;;;;;;;;10312480;28;20432;-85
2024/03/03 18:57:53;;;;;;;8.00;2.90;;;;;;;;;;10314131;28;20458;-83
2024/03/03 19:02:55;;;;;;;5.38;3.22;;;;;;;;;;10302905;28;20475;-84
2024/03/03 19:08:04;;;;;;;8.38;3.58;;;;;;;;;;10316603;28;20479;-85
2024/03/03 19:13:07;;;;;;;6.23;4.03;;;;;;;;;;10310351;28;20459;-85
2024/03/03 19:18:09;;;;;;;11.15;4.35;;;;;;;;;;10311456;28;20448;-85
2024/03/03 19:23:13;;;;;;;8.07;4.28;;;;;;;;;;10311765;28;20515;-84
2024/03/03 19:28:16;;;;;;;7.28;4.07;;;;;;;;;;10319919;28;20440;-85
2024/03/03 19:33:19;;;;;;;10.77;4.37;;;;;;;;;;10316339;28;20408;-84
2024/03/03 19:38:23;;;;;;;8.20;3.75;;;;;;;;;;10324892;28;20452;-84
2024/03/03 19:43:26;;;;;;;7.60;3.95;;;;;;;;;;10323247;28;20518;-84
2024/03/03 19:48:29;;;;;;;7.73;3.97;;;;;;;;;;10320885;28;20519;-84
2024/03/03 19:53:33;;;;;;;7.22;4.22;;;;;;;;;;10314018;28;20452;-84
2024/03/03 19:58:35;;;;;;;7.33;4.43;;;;;;;;;;10317625;28;20456;-83
2024/03/03 20:03:40;;;;;;;7.85;5.18;;;;;;;;;;10322066;28;20436;-83
2024/03/03 20:08:44;;;;;;;9.40;5.30;;;;;;;;;;10322487;28;20444;-84
2024/03/03 20:13:47;;;;;;;8.63;4.40;;;;;;;;;;10324238;28;20907;-82
2024/03/03 20:18:49;;;;;;;9.73;3.90;;;;;;;;;;10327191;28;20931;-83
2024/03/03 20:23:59;;;;;;;5.47;3.72;;;;;;;;;;10316259;28;20421;-84
2024/03/03 20:29:02;;;;;;;8.25;4.03;;;;;;;;;;10312911;28;20413;-82
2024/03/03 20:34:04;;;;;;;8.30;4.30;;;;;;;;;;10322391;28;20452;-82
2024/03/03 20:39:08;;;;;;;8.30;4.83;;;;;;;;;;10316862;28;20495;-83
2024/03/03 20:44:11;;;;;;;7.00;4.10;;;;;;;;;;10315824;28;20531;-83
2024/03/03 20:49:17;;;;;;;8.93;4.03;;;;;;;;;;10318729;28;20495;-83
2024/03/03 20:54:21;;;;;;;8.13;4.07;;;;;;;;;;10319124;28;20443;-83
2024/03/03 20:59:23;;;;;;;9.10;4.05;;;;;;;;;;10317234;28;21182;-84
2024/03/03 21:04:26;;;;;;;7.82;3.38;;;;;;;;;;10313302;28;20437;-85
2024/03/03 21:09:29;;;;;;;3.30;2.10;;;;;;;;;;10317255;28;20898;-85
2024/03/03 21:14:32;;;;;;;2.80;2.05;;;;;;;;;;10307503;28;20872;-85
2024/03/03 21:19:34;;;;;;;4.10;2.03;;;;;;;;;;10322897;28;21013;-86
2024/03/03 21:24:39;;;;;;;2.40;1.58;;;;;;;;;;10312383;28;20424;-85
2024/03/03 21:29:42;;;;;;;3.08;1.73;;;;;;;;;;10316355;28;20819;-86
2024/03/03 21:34:45;;;;;;;2.72;1.40;;;;;;;;;;10314807;28;20456;-86
2024/03/03 21:39:51;;;;;;;2.13;1.20;;;;;;;;;;10322717;28;21015;-85
2024/03/03 21:44:53;;;;;;;2.72;1.13;;;;;;;;;;10322255;28;20483;-85
2024/03/03 21:49:58;;;;;;;3.10;1.30;;;;;;;;;;10319631;28;20541;-86
2024/03/03 21:55:02;;;;;;;1.63;1.10;;;;;;;;;;10314964;28;20444;-86
2024/03/03 22:00:05;;;;;;;2.05;1.35;;;;;;;;;;10313117;28;20452;-85
2024/03/03 22:05:08;;;;;;;2.25;1.02;;;;;;;;;;10313071;28;20406;-87
2024/03/03 22:10:12;;;;;;;2.07;1.20;;;;;;;;;;10317770;28;20502;-87
2024/03/03 22:15:15;;;;;;;2.28;1.10;;;;;;;;;;10311219;28;20452;-86
2024/03/03 22:20:18;;;;;;;2.90;1.27;;;;;;;;;;10316790;28;20503;-88
2024/03/03 22:25:22;;;;;;;3.90;1.40;;;;;;;;;;10312574;28;20602;-87
2024/03/03 22:30:24;;;;;;;2.47;1.52;;;;;;;;;;10315663;28;20414;-88
2024/03/03 22:35:29;;;;;;;3.20;1.25;;;;;;;;;;10292942;28;20829;-87
2024/03/03 22:40:32;;;;;;;3.17;1.57;;;;;;;;;;10301908;28;20899;-87
2024/03/03 22:45:35;;;;;;;1.65;1.30;;;;;;;;;;10316335;28;20507;-87
2024/03/03 22:50:40;;;;;;;3.58;1.50;;;;;;;;;;10316149;28;20958;-86
2024/03/03 22:55:44;;;;;;;2.50;1.30;;;;;;;;;;10315509;28;20486;-87
2024/03/03 23:00:46;;;;;;;3.92;1.63;;;;;;;;;;10316424;28;20445;-87
2024/03/03 23:05:49;;;;;;;2.63;1.60;;;;;;;;;;10322486;28;20900;-87
2024/03/03 23:10:53;;;;;;;7.10;2.10;;;;;;;;;;10326609;28;20408;-87
2024/03/03 23:15:55;;;;;;;3.00;1.70;;;;;;;;;;10325680;28;20404;-87
2024/03/03 23:20:58;;;;;;;3.58;1.80;;;;;;;;;;10323993;28;20406;-87
2024/03/03 23:26:01;;;;;;;3.65;1.90;;;;;;;;;;10332526;28;20502;-87
2024/03/03 23:31:04;;;;;;;1.98;1.50;;;;;;;;;;10329578;28;20441;-84
2024/03/03 23:36:07;;;;;;;2.95;1.40;;;;;;;;;;10330682;28;20475;-86
2024/03/03 23:41:10;;;;;;;3.00;1.60;;;;;;;;;;10329437;28;21056;-87
2024/03/03 23:46:13;;;;;;;3.43;1.50;;;;;;;;;;10320284;28;20544;-87
2024/03/03 23:51:15;;;;;;;2.33;1.73;;;;;;;;;;10322180;28;20487;-86
2024/03/03 23:56:19;;;;;;;4.60;1.50;;;;;;;;;;10321246;28;20720;-85
